createdAt,value
2022-10-29T00:00:44.464Z,77.08
2022-10-29T00:01:51.110Z,77.34
2022-10-29T00:02:52.752Z,77.65
2022-10-29T00:03:55.406Z,77.41
2022-10-29T00:04:56.965Z,77.58
2022-10-29T00:06:01.725Z,77.58
2022-10-29T00:07:03.288Z,77.67
2022-10-29T00:08:05.988Z,77.69
2022-10-29T00:09:07.769Z,77.47
2022-10-29T00:10:10.796Z,77.55
2022-10-29T00:11:14.898Z,77.65
2022-10-29T00:12:18.729Z,77.43
2022-10-29T00:13:20.317Z,77.38
2022-10-29T00:14:22.798Z,77.30
2022-10-29T00:15:24.683Z,77.67
2022-10-29T00:16:28.957Z,77.75
2022-10-29T00:17:30.475Z,77.60
2022-10-29T00:18:33.011Z,77.59
2022-10-29T00:19:34.566Z,77.56
2022-10-29T00:20:37.071Z,77.54
2022-10-29T00:21:40.331Z,77.66
2022-10-29T00:22:42.830Z,77.70
2022-10-29T00:23:44.728Z,77.77
2022-10-29T00:24:47.207Z,77.61
2022-10-29T00:25:48.725Z,77.60
2022-10-29T00:26:51.240Z,77.86
2022-10-29T00:27:55.715Z,77.63
2022-10-29T00:28:58.450Z,78.06
2022-10-29T00:30:00.027Z,77.55
2022-10-29T00:31:06.271Z,77.46
2022-10-29T00:32:09.859Z,77.82
2022-10-29T00:33:12.905Z,77.88
2022-10-29T00:34:14.458Z,77.69
2022-10-29T00:35:17.103Z,77.92
2022-10-29T00:36:22.009Z,78.03
2022-10-29T00:37:24.479Z,77.62
2022-10-29T00:38:27.068Z,77.80
2022-10-29T00:39:29.767Z,77.80
2022-10-29T00:40:35.551Z,77.71
2022-10-29T00:41:38.054Z,77.99
2022-10-29T00:42:39.558Z,77.83
2022-10-29T00:43:48.753Z,77.97
2022-10-29T00:44:51.188Z,77.88
2022-10-29T00:45:57.772Z,78.04
2022-10-29T00:47:04.634Z,78.01
2022-10-29T00:48:07.341Z,77.85
2022-10-29T00:49:09.956Z,78.18
2022-10-29T00:50:15.416Z,78.03
2022-10-29T00:51:17.964Z,78.17
2022-10-29T00:52:23.147Z,77.93
2022-10-29T00:53:28.442Z,78.00
2022-10-29T00:54:32.913Z,78.13
2022-10-29T00:55:35.424Z,77.87
2022-10-29T00:56:40.571Z,77.99
2022-10-29T00:57:49.944Z,78.01
2022-10-29T00:58:53.154Z,77.89
2022-10-29T00:59:56.412Z,77.93
2022-10-29T01:00:59.224Z,77.85
2022-10-29T01:02:01.927Z,78.02
2022-10-29T01:03:03.759Z,78.04
2022-10-29T01:04:07.218Z,78.15
2022-10-29T01:05:10.236Z,78.40
2022-10-29T01:06:12.902Z,78.54
2022-10-29T01:07:14.504Z,78.43
2022-10-29T01:08:17.560Z,78.41
2022-10-29T01:09:19.098Z,78.35
2022-10-29T01:10:32.833Z,78.75
2022-10-29T01:11:44.166Z,78.50
2022-10-29T01:14:27.975Z,78.44
2022-10-29T01:15:41.570Z,78.59
2022-10-29T01:16:49.924Z,78.84
2022-10-29T01:18:05.973Z,78.87
2022-10-29T01:19:15.358Z,78.75
2022-10-29T01:20:42.203Z,78.96
2022-10-29T01:21:45.978Z,79.19
2022-10-29T01:22:59.654Z,78.93
2022-10-29T01:24:27.808Z,79.00
2022-10-29T01:25:51.093Z,79.19
2022-10-29T01:27:29.304Z,79.03
2022-10-29T01:28:42.584Z,79.14
2022-10-29T01:30:01.489Z,79.31
2022-10-29T01:31:19.603Z,79.25
2022-10-29T01:32:30.955Z,79.58
2022-10-29T01:33:39.630Z,79.58
2022-10-29T01:34:45.958Z,79.55
2022-10-29T01:35:58.327Z,79.58
2022-10-29T01:37:07.181Z,79.65
2022-10-29T01:38:20.835Z,79.71
2022-10-29T01:39:35.741Z,79.67
2022-10-29T01:40:44.343Z,79.67
2022-10-29T01:41:53.936Z,79.73
2022-10-29T01:43:05.106Z,79.88
2022-10-29T01:44:17.312Z,79.88
2022-10-29T01:45:24.415Z,80.11
2022-10-29T01:46:34.147Z,80.01
2022-10-29T01:47:41.592Z,80.06
2022-10-29T01:48:46.158Z,79.97
2022-10-29T01:49:52.528Z,80.03
2022-10-29T01:50:58.823Z,80.10
2022-10-29T01:52:04.264Z,80.25
2022-10-29T01:53:06.772Z,80.54
2022-10-29T01:54:12.057Z,80.45
2022-10-29T01:55:16.563Z,80.38
2022-10-29T01:56:19.268Z,80.14
2022-10-29T01:57:30.439Z,80.13
2022-10-29T01:58:34.293Z,80.36
2022-10-29T01:59:51.017Z,80.42
2022-10-29T02:01:03.237Z,80.32
2022-10-29T02:02:15.751Z,80.20
2022-10-29T02:03:30.955Z,80.34
2022-10-29T02:04:47.666Z,80.27
2022-10-29T02:05:58.154Z,80.33
2022-10-29T02:07:04.016Z,80.46
2022-10-29T02:08:18.952Z,80.50
2022-10-29T02:09:26.889Z,80.26
2022-10-29T02:10:34.501Z,80.49
2022-10-29T02:11:48.852Z,80.34
2022-10-29T02:12:53.862Z,80.42
2022-10-29T02:14:02.329Z,80.70
2022-10-29T02:15:09.120Z,80.41
2022-10-29T02:16:11.989Z,80.72
2022-10-29T02:17:15.826Z,80.62
2022-10-29T02:18:17.740Z,80.82
2022-10-29T02:19:20.469Z,80.85
2022-10-29T02:20:22.026Z,80.98
2022-10-29T02:21:24.654Z,81.03
2022-10-29T02:22:26.160Z,81.05
2022-10-29T02:23:28.977Z,80.86
2022-10-29T02:24:30.501Z,81.05
2022-10-29T02:25:33.103Z,81.29
2022-10-29T02:26:34.658Z,81.56
2022-10-29T02:27:37.194Z,81.24
2022-10-29T02:28:38.931Z,81.53
2022-10-29T02:29:41.462Z,81.46
2022-10-29T02:30:42.951Z,81.54
2022-10-29T02:31:45.498Z,81.69
2022-10-29T02:32:48.377Z,81.48
2022-10-29T02:33:50.957Z,81.68
2022-10-29T02:34:52.508Z,81.61
2022-10-29T02:35:54.984Z,81.89
2022-10-29T02:36:56.498Z,81.66
2022-10-29T02:37:59.000Z,81.75
2022-10-29T02:39:00.807Z,81.72
2022-10-29T02:40:06.676Z,81.83
2022-10-29T02:41:09.166Z,81.84
2022-10-29T02:42:10.980Z,81.84
2022-10-29T02:43:13.517Z,81.85
2022-10-29T02:44:15.090Z,82.10
2022-10-29T02:45:17.747Z,82.00
2022-10-29T02:46:28.456Z,82.16
2022-10-29T02:47:30.942Z,82.09
2022-10-29T02:48:33.803Z,82.13
2022-10-29T02:49:36.533Z,82.27
2022-10-29T02:50:38.047Z,82.19
2022-10-29T02:51:40.545Z,82.20
2022-10-29T02:52:42.068Z,82.36
2022-10-29T02:53:45.323Z,82.42
2022-10-29T02:54:46.892Z,82.43
2022-10-29T02:55:49.348Z,82.71
2022-10-29T02:56:50.849Z,82.59
2022-10-29T02:57:53.584Z,82.53
2022-10-29T02:58:55.454Z,82.62
2022-10-29T02:59:57.978Z,82.79
2022-10-29T03:00:59.533Z,82.83
2022-10-29T03:02:02.212Z,82.85
2022-10-29T03:03:04.096Z,82.87
2022-10-29T03:04:08.002Z,82.78
2022-10-29T03:05:10.331Z,82.90
2022-10-29T03:06:13.904Z,82.92
2022-10-29T03:07:15.402Z,83.00
2022-10-29T03:08:18.091Z,82.88
2022-10-29T03:09:19.648Z,83.11
2022-10-29T03:10:22.164Z,82.96
2022-10-29T03:11:23.774Z,82.95
2022-10-29T03:12:26.258Z,83.04
2022-10-29T03:13:27.855Z,82.96
2022-10-29T03:14:30.388Z,83.14
2022-10-29T03:15:31.911Z,83.11
2022-10-29T03:16:34.537Z,83.21
2022-10-29T03:17:36.023Z,83.16
2022-10-29T03:18:38.743Z,83.11
2022-10-29T03:19:41.623Z,83.24
2022-10-29T03:20:45.341Z,83.20
2022-10-29T03:21:46.866Z,83.12
2022-10-29T03:22:49.378Z,83.13
2022-10-29T03:23:50.919Z,83.22
2022-10-29T03:24:53.406Z,83.39
2022-10-29T03:25:56.558Z,83.03
2022-10-29T03:26:59.068Z,83.27
2022-10-29T03:28:00.662Z,83.17
2022-10-29T03:29:03.520Z,83.29
2022-10-29T03:30:06.244Z,83.16
2022-10-29T03:31:09.088Z,83.24
2022-10-29T03:32:19.786Z,83.19
2022-10-29T03:33:22.491Z,83.30
2022-10-29T03:34:23.992Z,83.19
2022-10-29T03:35:27.897Z,83.09
2022-10-29T03:36:30.537Z,83.06
2022-10-29T03:37:32.022Z,83.16
2022-10-29T03:38:35.030Z,83.21
2022-10-29T03:39:36.547Z,83.20
2022-10-29T03:40:39.049Z,83.09
2022-10-29T03:41:41.571Z,83.21
2022-10-29T03:42:43.081Z,83.14
2022-10-29T03:43:45.629Z,83.00
2022-10-29T03:44:47.226Z,82.94
2022-10-29T03:45:52.809Z,82.85
2022-10-29T03:46:54.386Z,83.06
2022-10-29T03:47:57.579Z,83.01
2022-10-29T03:48:59.575Z,82.97
2022-10-29T03:50:02.149Z,83.00
2022-10-29T03:51:06.692Z,82.94
2022-10-29T03:52:09.285Z,82.83
2022-10-29T03:53:11.078Z,82.68
2022-10-29T03:54:13.547Z,82.96
2022-10-29T03:55:15.290Z,82.80
2022-10-29T03:56:17.792Z,82.76
2022-10-29T03:57:19.387Z,82.69
2022-10-29T03:58:22.859Z,82.93
2022-10-29T03:59:24.771Z,82.84
2022-10-29T04:00:27.261Z,82.67
2022-10-29T04:01:28.869Z,82.74
2022-10-29T04:02:31.802Z,82.45
2022-10-29T04:03:35.421Z,82.66
2022-10-29T04:04:37.851Z,82.51
2022-10-29T04:05:39.340Z,82.56
2022-10-29T04:06:43.324Z,82.45
2022-10-29T04:07:44.845Z,82.44
2022-10-29T04:08:47.369Z,82.56
2022-10-29T04:09:48.934Z,82.65
2022-10-29T04:10:52.144Z,82.65
2022-10-29T04:11:53.854Z,82.54
2022-10-29T04:12:56.795Z,82.58
2022-10-29T04:13:58.568Z,82.69
2022-10-29T04:15:01.127Z,82.54
2022-10-29T04:16:02.904Z,82.53
2022-10-29T04:17:05.407Z,82.58
2022-10-29T04:18:09.901Z,82.54
2022-10-29T04:19:12.377Z,82.46
2022-10-29T04:20:31.608Z,82.62
2022-10-29T04:28:17.521Z,82.66
2022-10-29T04:28:44.359Z,82.49
2022-10-29T04:29:46.023Z,82.65
2022-10-29T04:30:51.685Z,82.67
2022-10-29T04:31:53.214Z,82.49
2022-10-29T04:32:58.322Z,82.46
2022-10-29T04:34:01.006Z,82.54
2022-10-29T04:35:03.639Z,82.55
2022-10-29T04:36:05.925Z,82.40
2022-10-29T04:37:08.440Z,82.51
2022-10-29T04:38:12.334Z,82.18
2022-10-29T04:39:18.208Z,82.37
2022-10-29T04:40:22.918Z,82.42
2022-10-29T04:41:25.553Z,82.36
2022-10-29T04:42:27.102Z,82.10
2022-10-29T04:43:30.197Z,82.36
2022-10-29T04:44:31.706Z,82.08
2022-10-29T04:45:34.455Z,82.23
2022-10-29T04:46:36.246Z,82.23
2022-10-29T04:47:38.706Z,82.17
2022-10-29T04:48:40.369Z,82.16
2022-10-29T04:49:42.901Z,82.03
2022-10-29T04:50:44.574Z,82.15
2022-10-29T04:51:47.108Z,82.14
2022-10-29T04:52:48.649Z,82.06
2022-10-29T04:53:53.190Z,82.01
2022-10-29T04:54:54.738Z,81.98
2022-10-29T04:56:01.194Z,81.98
2022-10-29T04:57:02.740Z,81.93
2022-10-29T04:58:05.471Z,81.81
2022-10-29T04:59:07.050Z,81.88
2022-10-29T05:00:16.218Z,81.97
2022-10-29T05:01:21.280Z,81.92
2022-10-29T05:02:23.941Z,81.92
2022-10-29T05:03:25.474Z,81.84
2022-10-29T05:04:29.373Z,81.91
2022-10-29T05:05:30.884Z,81.65
2022-10-29T05:06:33.402Z,81.81
2022-10-29T05:07:37.597Z,81.88
2022-10-29T05:08:40.117Z,81.91
2022-10-29T05:09:42.922Z,81.77
2022-10-29T05:10:45.428Z,81.76
2022-10-29T05:11:47.102Z,81.81
2022-10-29T05:12:49.596Z,81.83
2022-10-29T05:13:51.166Z,81.74
2022-10-29T05:14:53.663Z,81.61
2022-10-29T05:15:55.444Z,81.58
2022-10-29T05:16:57.975Z,81.83
2022-10-29T05:17:59.955Z,81.73
2022-10-29T05:19:02.715Z,81.81
2022-10-29T05:20:05.292Z,81.65
2022-10-29T05:21:07.746Z,81.90
2022-10-29T05:22:09.597Z,81.78
2022-10-29T05:23:12.985Z,81.89
2022-10-29T05:24:15.024Z,81.92
2022-10-29T05:25:18.875Z,82.01
2022-10-29T05:26:20.435Z,82.03
2022-10-29T05:27:22.962Z,81.78
2022-10-29T05:28:24.543Z,81.91
2022-10-29T05:29:27.025Z,82.01
2022-10-29T05:30:28.596Z,81.84
2022-10-29T05:31:31.269Z,81.96
2022-10-29T05:32:32.958Z,81.72
2022-10-29T05:33:35.535Z,81.65
2022-10-29T05:34:39.509Z,81.62
2022-10-29T05:35:45.148Z,81.71
2022-10-29T05:36:46.648Z,81.62
2022-10-29T05:37:52.692Z,81.51
2022-10-29T05:38:54.233Z,81.53
2022-10-29T05:39:56.704Z,81.32
2022-10-29T05:41:01.004Z,81.35
2022-10-29T05:42:02.518Z,81.36
2022-10-29T05:43:05.313Z,81.26
2022-10-29T05:44:07.207Z,81.21
2022-10-29T05:45:10.984Z,81.29
2022-10-29T05:46:13.559Z,81.21
2022-10-29T05:47:15.076Z,81.38
2022-10-29T05:48:17.639Z,81.32
2022-10-29T05:49:19.212Z,81.17
2022-10-29T05:50:21.995Z,81.05
2022-10-29T05:51:24.564Z,81.04
2022-10-29T05:52:26.068Z,80.96
2022-10-29T05:53:28.621Z,81.07
2022-10-29T05:54:30.179Z,80.93
2022-10-29T05:55:35.262Z,80.96
2022-10-29T05:56:38.106Z,80.89
2022-10-29T05:57:40.581Z,80.91
2022-10-29T05:58:43.070Z,81.00
2022-10-29T05:59:44.570Z,80.83
2022-10-29T06:00:47.145Z,80.86
2022-10-29T06:01:48.780Z,80.81
2022-10-29T06:02:51.483Z,80.84
2022-10-29T06:03:54.022Z,80.85
2022-10-29T06:04:55.515Z,80.82
2022-10-29T06:05:57.984Z,80.63
2022-10-29T06:07:00.804Z,80.74
2022-10-29T06:08:03.265Z,80.69
2022-10-29T06:09:04.957Z,80.60
2022-10-29T06:10:08.710Z,80.79
2022-10-29T06:11:10.226Z,80.68
2022-10-29T06:12:14.083Z,80.68
2022-10-29T06:13:17.964Z,80.46
2022-10-29T06:14:20.514Z,80.65
2022-10-29T06:15:22.823Z,80.31
2022-10-29T06:16:25.354Z,80.56
2022-10-29T06:17:27.348Z,80.37
2022-10-29T06:18:30.529Z,80.40
2022-10-29T06:19:32.277Z,80.33
2022-10-29T06:20:34.804Z,80.24
2022-10-29T06:21:37.337Z,80.22
2022-10-29T06:22:39.073Z,80.29
2022-10-29T06:23:41.895Z,80.20
2022-10-29T06:24:43.397Z,80.18
2022-10-29T06:25:45.869Z,80.17
2022-10-29T06:26:47.413Z,80.11
2022-10-29T06:27:58.701Z,79.88
2022-10-29T06:29:01.559Z,80.09
2022-10-29T06:30:03.863Z,80.08
2022-10-29T06:31:06.587Z,79.98
2022-10-29T06:32:08.071Z,79.85
2022-10-29T06:33:10.595Z,79.89
2022-10-29T06:34:13.437Z,79.91
2022-10-29T06:35:16.025Z,79.80
2022-10-29T06:36:17.588Z,79.81
2022-10-29T06:37:33.119Z,79.91
2022-10-29T06:38:34.684Z,79.69
2022-10-29T06:39:37.220Z,79.77
2022-10-29T06:40:38.959Z,79.83
2022-10-29T06:41:41.547Z,79.68
2022-10-29T06:42:43.262Z,79.67
2022-10-29T06:43:47.192Z,79.74
2022-10-29T06:44:48.669Z,79.68
2022-10-29T06:45:51.209Z,79.67
2022-10-29T06:46:52.830Z,79.63
2022-10-29T06:47:55.844Z,79.78
2022-10-29T06:48:58.594Z,79.61
2022-10-29T06:50:00.153Z,79.59
2022-10-29T06:51:02.600Z,79.60
2022-10-29T06:52:04.544Z,79.48
2022-10-29T06:53:08.719Z,79.38
2022-10-29T06:54:10.263Z,79.21
2022-10-29T06:55:12.710Z,79.24
2022-10-29T06:56:14.208Z,79.20
2022-10-29T06:57:16.702Z,79.33
2022-10-29T06:58:20.165Z,79.25
2022-10-29T06:59:24.423Z,79.27
2022-10-29T07:00:26.183Z,79.21
2022-10-29T07:01:31.746Z,79.00
2022-10-29T07:02:34.143Z,79.08
2022-10-29T07:03:36.874Z,79.05
2022-10-29T07:04:38.360Z,79.03
2022-10-29T07:05:40.889Z,78.89
2022-10-29T07:06:42.475Z,79.13
2022-10-29T07:07:44.982Z,78.71
2022-10-29T07:08:46.591Z,78.87
2022-10-29T07:09:49.047Z,78.70
2022-10-29T07:10:51.052Z,78.75
2022-10-29T07:11:53.705Z,78.71
2022-10-29T07:12:55.667Z,78.59
2022-10-29T07:13:58.595Z,78.64
2022-10-29T07:15:01.503Z,78.48
2022-10-29T07:16:04.153Z,78.47
2022-10-29T07:17:06.009Z,78.42
2022-10-29T07:18:09.645Z,78.37
2022-10-29T07:19:12.133Z,78.47
2022-10-29T07:20:13.873Z,78.49
2022-10-29T07:21:16.530Z,78.34
2022-10-29T07:22:18.026Z,78.46
2022-10-29T07:23:20.801Z,78.39
2022-10-29T07:24:22.399Z,78.63
2022-10-29T07:25:25.281Z,78.35
2022-10-29T07:26:27.738Z,78.42
2022-10-29T07:27:29.321Z,78.55
2022-10-29T07:28:32.023Z,78.13
2022-10-29T07:29:33.796Z,78.01
2022-10-29T07:30:37.912Z,78.25
2022-10-29T07:31:39.501Z,78.28
2022-10-29T07:32:42.141Z,78.27
2022-10-29T07:33:43.719Z,77.96
2022-10-29T07:34:46.213Z,78.03
2022-10-29T07:35:50.430Z,77.93
2022-10-29T07:36:52.914Z,77.65
2022-10-29T07:37:59.770Z,77.70
2022-10-29T07:39:04.915Z,77.84
2022-10-29T07:40:07.997Z,77.53
2022-10-29T07:41:10.727Z,77.43
2022-10-29T07:42:12.243Z,77.50
2022-10-29T07:43:14.748Z,77.53
2022-10-29T07:44:16.882Z,77.38
2022-10-29T07:45:19.423Z,77.30
2022-10-29T07:46:22.253Z,77.35
2022-10-29T07:47:24.850Z,77.20
2022-10-29T07:48:26.398Z,77.10
2022-10-29T07:49:28.827Z,77.22
2022-10-29T07:50:31.482Z,76.99
2022-10-29T07:51:34.009Z,77.02
2022-10-29T07:52:35.584Z,76.78
2022-10-29T07:53:38.058Z,76.87
2022-10-29T07:54:39.565Z,76.76
2022-10-29T07:55:42.383Z,76.62
2022-10-29T07:56:46.844Z,76.77
2022-10-29T07:57:58.837Z,76.69
2022-10-29T07:59:00.543Z,76.70
2022-10-29T08:00:03.389Z,76.53
2022-10-29T08:01:07.234Z,76.89
2022-10-29T08:02:11.859Z,76.56
2022-10-29T08:03:13.976Z,76.69
2022-10-29T08:04:16.515Z,76.67
2022-10-29T08:05:18.077Z,76.76
2022-10-29T08:06:20.895Z,76.64
2022-10-29T08:07:22.448Z,76.83
2022-10-29T08:08:25.465Z,76.71
2022-10-29T08:09:27.112Z,76.69
2022-10-29T08:10:30.777Z,76.54
2022-10-29T08:11:33.194Z,76.74
2022-10-29T08:12:35.723Z,76.76
2022-10-29T08:13:37.263Z,76.33
2022-10-29T08:14:39.785Z,76.73
2022-10-29T08:15:41.306Z,76.43
2022-10-29T08:16:43.803Z,76.44
2022-10-29T08:17:47.249Z,76.48
2022-10-29T08:18:49.810Z,76.31
2022-10-29T08:19:51.347Z,76.30
2022-10-29T08:20:53.802Z,76.21
2022-10-29T08:21:55.514Z,76.30
2022-10-29T08:23:01.267Z,76.11
2022-10-29T08:24:03.345Z,75.78
2022-10-29T08:25:06.544Z,75.72
2022-10-29T08:26:09.036Z,75.89
2022-10-29T08:27:10.564Z,76.20
2022-10-29T08:28:14.989Z,75.94
2022-10-29T08:29:16.688Z,75.68
2022-10-29T08:30:19.283Z,75.76
2022-10-29T08:31:20.896Z,75.87
2022-10-29T08:32:23.399Z,75.86
2022-10-29T08:33:27.655Z,75.61
2022-10-29T08:34:29.182Z,75.50
2022-10-29T08:35:31.746Z,75.40
2022-10-29T08:36:33.371Z,75.36
2022-10-29T08:37:35.939Z,75.29
2022-10-29T08:38:37.486Z,75.31
2022-10-29T08:39:39.994Z,75.34
2022-10-29T08:40:56.127Z,75.76
2022-10-29T08:42:11.004Z,75.58
2022-10-29T08:43:47.617Z,75.69
2022-10-29T08:45:11.771Z,75.26
2022-10-29T08:46:19.258Z,75.46
2022-10-29T08:47:24.106Z,75.70
2022-10-29T08:48:37.589Z,75.55
2022-10-29T08:49:47.266Z,75.26
2022-10-29T08:50:53.383Z,75.47
2022-10-29T08:52:01.117Z,75.58
2022-10-29T08:53:22.386Z,75.25
2022-10-29T08:54:31.502Z,75.08
2022-10-29T08:55:36.322Z,75.29
2022-10-29T08:56:41.151Z,75.02
2022-10-29T08:57:56.415Z,74.41
2022-10-29T08:59:03.419Z,74.41
2022-10-29T09:01:21.604Z,74.63
2022-10-29T09:02:24.337Z,74.51
2022-10-29T09:03:28.658Z,74.53
2022-10-29T09:04:37.252Z,74.63
2022-10-29T09:05:49.642Z,74.28
2022-10-29T09:07:16.359Z,73.96
2022-10-29T09:08:32.038Z,74.18
2022-10-29T09:09:39.181Z,73.79
2022-10-29T09:10:48.094Z,73.79
2022-10-29T09:12:04.987Z,74.02
2022-10-29T09:13:23.615Z,73.45
2022-10-29T09:14:43.910Z,73.52
2022-10-29T09:16:01.331Z,73.69
2022-10-29T09:17:15.770Z,73.81
2022-10-29T09:18:33.477Z,73.28
2022-10-29T09:19:50.245Z,73.24
2022-10-29T09:20:59.002Z,73.27
2022-10-29T09:22:13.223Z,73.25
2022-10-29T09:23:25.532Z,73.12
2022-10-29T09:24:34.963Z,72.64
2022-10-29T09:25:46.639Z,72.91
2022-10-29T09:26:58.641Z,72.73
2022-10-29T09:28:17.707Z,72.80
2022-10-29T09:29:34.433Z,72.82
2022-10-29T09:30:43.985Z,72.87
2022-10-29T09:31:49.916Z,72.92
2022-10-29T09:32:59.960Z,72.38
2022-10-29T09:34:05.965Z,72.55
2022-10-29T09:35:14.718Z,72.54
2022-10-29T09:36:18.446Z,72.42
2022-10-29T09:37:25.728Z,72.30
2022-10-29T09:38:32.723Z,72.24
2022-10-29T09:39:39.922Z,72.38
2022-10-29T09:40:42.960Z,72.35
2022-10-29T09:41:45.940Z,71.88
2022-10-29T09:42:48.086Z,71.79
2022-10-29T09:43:56.909Z,71.87
2022-10-29T09:45:02.591Z,71.85
2022-10-29T09:46:12.174Z,71.51
2022-10-29T09:47:25.450Z,71.43
2022-10-29T09:48:33.801Z,71.31
2022-10-29T09:49:49.911Z,71.00
2022-10-29T09:51:02.685Z,70.84
2022-10-29T09:52:09.955Z,71.11
2022-10-29T09:53:12.588Z,70.95
2022-10-29T09:54:14.223Z,70.89
2022-10-29T09:55:22.213Z,70.66
2022-10-29T09:56:23.822Z,71.03
2022-10-29T09:57:29.294Z,70.50
2022-10-29T09:58:30.841Z,70.76
2022-10-29T09:59:37.628Z,70.77
2022-10-29T10:00:40.167Z,70.50
2022-10-29T10:01:41.790Z,70.76
2022-10-29T10:02:46.640Z,70.90
2022-10-29T10:03:55.059Z,70.65
2022-10-29T10:05:01.849Z,70.51
2022-10-29T10:06:08.010Z,70.92
2022-10-29T10:07:11.721Z,70.61
2022-10-29T10:08:15.409Z,70.50
2022-10-29T10:09:16.927Z,71.16
2022-10-29T10:10:23.872Z,70.45
2022-10-29T10:11:31.036Z,71.19
2022-10-29T10:12:46.750Z,70.60
2022-10-29T10:13:53.717Z,70.61
2022-10-29T10:15:16.976Z,70.55
2022-10-29T10:16:25.233Z,70.65
2022-10-29T10:17:26.798Z,71.22
2022-10-29T10:18:41.594Z,70.91
2022-10-29T10:19:45.570Z,70.91
2022-10-29T10:21:03.114Z,70.97
2022-10-29T10:22:16.447Z,70.87
2022-10-29T10:23:27.302Z,71.15
2022-10-29T10:24:31.532Z,71.11
2022-10-29T10:25:36.731Z,71.23
2022-10-29T10:26:43.006Z,70.76
2022-10-29T10:27:44.582Z,71.11
2022-10-29T10:29:03.959Z,71.30
2022-10-29T10:30:15.762Z,70.75
2022-10-29T10:31:18.294Z,71.19
2022-10-29T10:32:19.810Z,71.15
2022-10-29T10:33:27.022Z,71.11
2022-10-29T10:34:38.866Z,70.54
2022-10-29T10:35:41.129Z,70.85
2022-10-29T10:36:45.531Z,70.81
2022-10-29T10:37:48.535Z,70.35
2022-10-29T10:38:54.009Z,70.56
2022-10-29T10:40:00.489Z,70.90
2022-10-29T10:41:08.258Z,70.40
2022-10-29T10:42:17.055Z,70.31
2022-10-29T10:43:23.067Z,70.21
2022-10-29T10:44:25.929Z,70.32
2022-10-29T10:45:34.443Z,70.00
2022-10-29T10:46:41.718Z,70.23
2022-10-29T10:47:47.894Z,70.17
2022-10-29T10:48:59.494Z,70.05
2022-10-29T10:50:11.894Z,69.74
2022-10-29T10:51:25.178Z,69.71
2022-10-29T10:52:32.191Z,70.00
2022-10-29T10:53:35.371Z,69.65
2022-10-29T10:54:41.852Z,69.47
2022-10-29T10:55:47.963Z,69.46
2022-10-29T10:56:58.508Z,69.39
2022-10-29T10:58:11.259Z,69.02
2022-10-29T10:59:16.347Z,68.99
2022-10-29T11:00:20.791Z,69.22
2022-10-29T11:01:28.276Z,69.01
2022-10-29T11:02:40.219Z,69.19
2022-10-29T11:03:45.342Z,68.97
2022-10-29T11:04:50.881Z,69.13
2022-10-29T11:05:59.485Z,69.29
2022-10-29T11:07:07.087Z,69.11
2022-10-29T11:08:17.626Z,69.39
2022-10-29T11:09:25.380Z,68.99
2022-10-29T11:10:34.990Z,69.28
2022-10-29T11:11:40.336Z,69.03
2022-10-29T11:12:46.430Z,69.24
2022-10-29T11:13:50.286Z,69.31
2022-10-29T11:14:58.364Z,69.26
2022-10-29T11:16:08.210Z,69.24
2022-10-29T11:17:25.994Z,69.05
2022-10-29T11:18:34.663Z,69.05
2022-10-29T11:19:42.988Z,69.24
2022-10-29T11:20:51.014Z,69.00
2022-10-29T11:22:03.814Z,69.23
2022-10-29T11:23:24.547Z,69.03
2022-10-29T11:24:37.814Z,68.70
2022-10-29T11:25:43.676Z,69.13
2022-10-29T11:26:49.798Z,68.80
2022-10-29T11:27:56.969Z,69.01
2022-10-29T11:29:05.596Z,68.70
2022-10-29T11:30:12.082Z,68.89
2022-10-29T11:31:23.994Z,68.63
2022-10-29T11:32:33.367Z,68.64
2022-10-29T11:33:44.448Z,68.90
2022-10-29T11:34:54.485Z,69.09
2022-10-29T11:36:02.656Z,68.54
2022-10-29T11:37:14.923Z,68.67
2022-10-29T11:38:21.013Z,68.57
2022-10-29T11:39:32.550Z,68.87
2022-10-29T11:40:41.402Z,68.84
2022-10-29T11:41:51.202Z,68.49
2022-10-29T11:42:53.853Z,68.41
2022-10-29T11:43:55.527Z,68.83
2022-10-29T11:44:59.968Z,68.81
2022-10-29T11:46:08.780Z,68.61
2022-10-29T11:47:28.035Z,68.52
2022-10-29T11:48:46.169Z,68.52
2022-10-29T11:50:05.409Z,68.43
2022-10-29T11:51:19.895Z,68.42
2022-10-29T11:52:35.528Z,68.26
2022-10-29T11:53:56.695Z,68.50
2022-10-29T11:55:16.206Z,68.78
2022-10-29T11:56:30.753Z,68.71
2022-10-29T11:57:40.472Z,68.67
2022-10-29T11:58:49.287Z,68.31
2022-10-29T12:00:05.646Z,68.25
2022-10-29T12:01:20.376Z,68.47
2022-10-29T12:02:35.227Z,68.45
2022-10-29T12:03:54.545Z,68.17
2022-10-29T12:05:01.967Z,68.50
2022-10-29T12:06:16.447Z,68.54
2022-10-29T12:07:30.831Z,68.21
2022-10-29T12:08:48.851Z,68.05
2022-10-29T12:10:13.393Z,68.16
2022-10-29T12:11:26.011Z,68.22
2022-10-29T12:12:35.882Z,68.18
2022-10-29T12:13:55.222Z,67.96
2022-10-29T12:15:03.049Z,67.97
2022-10-29T12:16:21.239Z,68.40
2022-10-29T12:17:32.601Z,67.95
2022-10-29T12:18:44.348Z,68.33
2022-10-29T12:19:55.634Z,68.13
2022-10-29T12:21:06.026Z,67.91
2022-10-29T12:22:21.823Z,68.31
2022-10-29T12:23:34.778Z,68.33
2022-10-29T12:24:50.086Z,67.95
2022-10-29T12:26:02.479Z,68.08
2022-10-29T12:27:14.362Z,68.16
2022-10-29T12:28:23.997Z,68.26
2022-10-29T12:29:33.842Z,67.65
2022-10-29T12:30:43.459Z,68.06
2022-10-29T12:31:55.834Z,67.74
2022-10-29T12:33:05.654Z,67.67
2022-10-29T12:34:17.476Z,67.97
2022-10-29T12:35:28.989Z,67.67
2022-10-29T12:36:38.957Z,67.59
2022-10-29T12:37:47.300Z,67.48
2022-10-29T12:38:52.727Z,67.91
2022-10-29T12:40:01.031Z,67.76
2022-10-29T12:41:06.315Z,67.37
2022-10-29T12:42:16.199Z,67.66
2022-10-29T12:43:23.433Z,67.54
2022-10-29T12:44:31.937Z,67.76
2022-10-29T12:46:06.525Z,67.46
2022-10-29T12:47:12.258Z,67.58
2022-10-29T12:48:18.751Z,67.75
2022-10-29T12:49:31.404Z,67.78
2022-10-29T12:50:44.895Z,67.39
2022-10-29T12:51:54.370Z,67.13
2022-10-29T12:53:04.441Z,67.18
2022-10-29T12:54:21.462Z,67.35
2022-10-29T12:55:24.010Z,66.99
2022-10-29T12:56:29.744Z,66.85
2022-10-29T12:57:34.578Z,66.87
2022-10-29T12:58:48.834Z,66.54
2022-10-29T12:59:51.353Z,66.78
2022-10-29T13:00:53.018Z,66.89
2022-10-29T13:02:12.313Z,66.79
2022-10-29T13:03:48.790Z,66.65
2022-10-29T13:05:13.850Z,66.74
2022-10-29T13:06:45.463Z,66.63
2022-10-29T13:08:27.835Z,66.58
2022-10-29T13:09:33.376Z,66.38
2022-10-29T13:10:53.772Z,66.32
2022-10-29T13:11:59.385Z,65.96
2022-10-29T13:13:05.386Z,66.33
2022-10-29T13:14:07.930Z,65.87
2022-10-29T13:15:15.294Z,65.91
2022-10-29T13:16:22.197Z,66.01
2022-10-29T13:17:31.704Z,65.75
2022-10-29T13:18:44.651Z,66.04
2022-10-29T13:19:52.063Z,66.12
2022-10-29T13:20:55.014Z,66.09
2022-10-29T13:22:05.148Z,65.99
2022-10-29T13:23:32.881Z,66.04
2022-10-29T13:24:34.514Z,65.95
2022-10-29T13:25:48.583Z,65.98
2022-10-29T13:27:01.610Z,66.13
2022-10-29T13:28:52.958Z,66.27
2022-10-29T13:30:22.484Z,66.18
2022-10-29T13:31:54.854Z,66.19
2022-10-29T13:32:56.879Z,66.37
2022-10-29T13:33:59.588Z,66.10
2022-10-29T13:35:03.241Z,66.23
2022-10-29T13:36:07.291Z,66.37
2022-10-29T13:37:55.830Z,66.18
2022-10-29T13:39:07.322Z,66.07
2022-10-29T13:40:43.663Z,66.03
2022-10-29T13:41:51.303Z,66.19
2022-10-29T13:42:58.301Z,65.84
2022-10-29T13:44:04.856Z,65.79
2022-10-29T13:45:11.607Z,65.83
2022-10-29T13:46:30.050Z,65.65
2022-10-29T13:47:32.043Z,65.87
2022-10-29T13:48:37.175Z,65.82
2022-10-29T13:49:44.153Z,65.46
2022-10-29T13:50:49.867Z,65.85
2022-10-29T13:52:00.074Z,65.52
2022-10-29T13:53:10.731Z,65.52
2022-10-29T13:54:23.959Z,65.45
2022-10-29T13:55:27.596Z,65.57
2022-10-29T13:56:35.706Z,65.67
2022-10-29T13:57:44.032Z,65.50
2022-10-29T13:58:59.611Z,65.58
2022-10-29T14:00:07.273Z,65.48
2022-10-29T14:01:17.256Z,65.48
2022-10-29T14:02:31.149Z,65.63
2022-10-29T14:03:42.611Z,65.42
2022-10-29T14:04:49.649Z,65.58
2022-10-29T14:05:57.491Z,65.55
2022-10-29T14:07:00.574Z,65.54
2022-10-29T14:08:12.787Z,65.84
2022-10-29T14:09:21.032Z,65.39
2022-10-29T14:10:27.223Z,65.73
2022-10-29T14:11:38.164Z,65.58
2022-10-29T14:12:42.764Z,66.07
2022-10-29T14:13:49.067Z,65.83
2022-10-29T14:14:59.306Z,65.95
2022-10-29T14:16:02.682Z,65.71
2022-10-29T14:17:13.863Z,66.02
2022-10-29T14:18:19.869Z,65.71
2022-10-29T14:19:21.681Z,65.68
2022-10-29T14:20:27.041Z,65.74
2022-10-29T14:21:36.453Z,65.76
2022-10-29T14:22:40.941Z,65.74